Time;durP1;ratioP1;P1;durP2;ratioP2;P2;SDS_P1;SDS_P2;PMS_P1;PMS_P2;Temp;Humidity;BMP_temperature;BMP_pressure;BME280_temperature;BME280_humidity;BME280_pressure;Samples;Min_cycle;Max_cycle;Signal;HPM_P1;HPM_P2
2022/11/27 00:03:01;;;;;;;1.27;1.17;;;;;;;10.37;65.25;101088.25;4432012;32;33216;-90
2022/11/27 00:05:30;;;;;;;1.92;1.83;;;;;;;10.03;65.90;101096.00;4418831;32;32713;-90
2022/11/27 00:07:58;;;;;;;1.52;1.48;;;;;;;9.95;66.18;101082.94;4407869;32;33035;-90
2022/11/27 00:10:28;;;;;;;0.90;0.90;;;;;;;10.28;65.36;101091.97;4406289;32;33785;-90
2022/11/27 00:13:28;;;;;;;1.50;1.33;;;;;;;10.47;64.46;101088.00;4424562;32;32620;-90
2022/11/27 00:16:20;;;;;;;1.58;1.48;;;;;;;10.28;65.08;101097.25;4420749;32;33207;-90
2022/11/27 00:18:51;;;;;;;0.75;0.75;;;;;;;10.24;65.15;101092.94;4407430;32;35173;-90
2022/11/27 00:21:46;;;;;;;1.40;1.30;;;;;;;10.19;65.17;101089.47;4411626;32;33114;-90
2022/11/27 00:24:20;;;;;;;2.05;1.85;;;;;;;10.11;65.26;101101.97;4414012;32;32259;-90
2022/11/27 00:27:09;;;;;;;1.83;1.73;;;;;;;10.05;65.31;101091.56;4413451;32;34146;-90
2022/11/27 00:29:39;;;;;;;2.30;1.05;;;;;;;9.97;65.48;101087.31;4438924;32;34665;-90
2022/11/27 00:32:08;;;;;;;3.30;2.67;;;;;;;10.04;65.10;101085.41;4397074;32;32664;-90
2022/11/27 00:34:57;;;;;;;1.77;1.27;;;;;;;10.05;65.00;101094.19;4419098;32;33386;-90
2022/11/27 00:37:59;;;;;;;;;;;;;;;10.27;64.32;101097.28;4363576;32;33318;-90
2022/11/27 00:41:29;;;;;;;1.50;1.40;;;;;;;10.35;63.10;101090.94;4353977;32;35236;-90
2022/11/27 00:44:18;;;;;;;4.95;3.15;;;;;;;10.09;63.43;101098.50;4349569;32;33939;-88
2022/11/27 00:46:46;;;;;;;1.27;1.17;;;;;;;10.09;63.88;101099.38;4367502;32;33282;-88
2022/11/27 00:49:16;;;;;;;10.80;2.72;;;;;;;9.76;64.70;101095.66;4360553;32;32982;-89
2022/11/27 00:51:44;;;;;;;1.27;1.20;;;;;;;9.71;64.91;101097.50;4360803;32;33919;-89
2022/11/27 00:54:14;;;;;;;2.12;2.03;;;;;;;9.62;65.14;101111.72;4361566;32;33336;-88
2022/11/27 00:56:45;;;;;;;4.40;3.35;;;;;;;9.93;64.19;101106.75;4362177;32;32500;-89
2022/11/27 00:59:14;;;;;;;1.87;1.77;;;;;;;9.45;65.52;101095.38;4339947;32;32321;-89
2022/11/27 01:01:42;;;;;;;8.50;2.60;;;;;;;9.57;65.27;101105.69;4368848;32;33464;-87
2022/11/27 01:04:13;;;;;;;1.98;1.37;;;;;;;9.59;65.16;101097.72;4358141;32;32551;-87
2022/11/27 01:06:42;;;;;;;1.25;1.25;;;;;;;9.52;65.26;101106.66;4368664;32;33464;-87
2022/11/27 01:09:14;;;;;;;0.95;0.95;;;;;;;9.57;65.02;101112.72;4370179;32;33936;-87
2022/11/27 01:11:44;;;;;;;2.37;2.00;;;;;;;9.59;64.91;101108.28;4370472;32;33925;-87
2022/11/27 01:14:15;;;;;;;3.40;2.40;;;;;;;9.47;65.14;101109.38;4369138;32;33564;-87
2022/11/27 01:16:44;;;;;;;2.10;2.00;;;;;;;9.48;64.97;101103.22;4354651;32;32937;-87
2022/11/27 01:19:13;;;;;;;2.87;2.47;;;;;;;9.56;64.51;101108.34;4366073;32;32982;-87
2022/11/27 01:21:41;;;;;;;1.30;1.27;;;;;;;9.43;64.57;101094.53;4368614;32;33923;-87
2022/11/27 01:24:12;;;;;;;0.93;0.88;;;;;;;9.35;64.43;101099.06;4365268;32;34147;-89
2022/11/27 01:26:40;;;;;;;6.30;1.30;;;;;;;9.36;64.38;101108.72;4342725;32;32020;-89
2022/11/27 01:29:08;;;;;;;1.40;1.37;;;;;;;9.30;64.42;101109.69;4360587;32;34262;-89
2022/11/27 01:31:38;;;;;;;2.35;2.15;;;;;;;9.26;64.40;101110.66;4365862;32;32908;-89
2022/11/27 01:34:13;;;;;;;1.95;1.42;;;;;;;9.05;64.79;101111.87;4371052;32;34043;-89
2022/11/27 01:36:42;;;;;;;3.67;1.80;;;;;;;9.10;64.52;101114.44;4365163;32;31847;-89
2022/11/27 01:39:15;;;;;;;3.05;2.85;;;;;;;9.20;64.29;101119.50;4369829;32;33029;-89
2022/11/27 01:41:44;;;;;;;1.30;1.30;;;;;;;9.19;64.22;101117.78;4369341;32;34012;-89
2022/11/27 01:44:24;;;;;;;2.33;2.20;;;;;;;9.12;64.21;101113.53;4354717;32;32831;-89
2022/11/27 01:47:03;;;;;;;1.35;1.25;;;;;;;9.10;64.38;101106.53;4354514;32;32734;-89
2022/11/27 01:49:40;;;;;;;1.27;1.27;;;;;;;9.06;64.31;101107.47;4345995;32;33069;-89
2022/11/27 01:52:16;;;;;;;3.33;3.00;;;;;;;9.00;64.42;101104.94;4367920;32;33591;-89
2022/11/27 01:54:57;;;;;;;2.95;2.12;;;;;;;9.03;64.36;101107.53;4353855;32;34362;-89
2022/11/27 01:57:29;;;;;;;0.90;0.88;;;;;;;9.01;64.30;101109.31;4356251;32;32149;-88
2022/11/27 01:59:58;;;;;;;1.33;1.25;;;;;;;8.99;64.30;101117.25;4367799;32;31517;-89
2022/11/27 02:02:27;;;;;;;2.33;2.15;;;;;;;9.03;64.11;101104.91;4352939;32;33527;-88
2022/11/27 02:04:59;;;;;;;2.75;1.12;;;;;;;8.92;64.36;101120.84;4365596;32;33804;-88
2022/11/27 02:07:27;;;;;;;2.50;2.30;;;;;;;9.00;64.12;101118.97;4368519;32;33225;-89
2022/11/27 02:09:55;;;;;;;3.33;1.33;;;;;;;8.79;64.55;101117.56;4367034;32;33889;-89
2022/11/27 02:12:46;;;;;;;2.00;1.60;;;;;;;8.92;64.25;101121.72;4367210;32;34072;-88
2022/11/27 02:15:45;;;;;;;5.60;3.65;;;;;;;8.86;64.39;101116.56;4354412;32;32487;-89
2022/11/27 02:18:31;;;;;;;3.12;2.87;;;;;;;8.84;64.50;101121.00;4368325;32;33247;-89
2022/11/27 02:21:21;;;;;;;1.23;1.20;;;;;;;8.87;64.34;101106.88;4368757;32;32934;-89
2022/11/27 02:24:07;;;;;;;2.05;1.95;;;;;;;8.80;64.34;101111.41;4355991;32;34017;-89
2022/11/27 02:27:07;;;;;;;1.37;1.35;;;;;;;8.79;64.40;101104.41;4354462;32;32885;-88
2022/11/27 02:29:35;;;;;;;1.35;1.33;;;;;;;8.69;64.73;101108.94;4346425;32;32837;-86
2022/11/27 02:32:32;;;;;;;4.28;1.55;;;;;;;8.60;65.09;101109.06;4367671;32;33354;-85
2022/11/27 02:35:06;;;;;;;3.97;2.50;;;;;;;8.74;64.71;101115.91;4342056;32;34376;-86
2022/11/27 02:37:49;;;;;;;1.83;1.73;;;;;;;8.61;65.11;101115.19;4355327;32;33139;-87
2022/11/27 02:40:33;;;;;;;1.85;1.25;;;;;;;8.73;64.60;101115.00;4362582;32;32704;-86
2022/11/27 02:43:06;;;;;;;1.27;1.23;;;;;;;8.73;64.35;101120.28;4356676;32;33670;-86
2022/11/27 02:45:42;;;;;;;1.50;1.45;;;;;;;8.62;64.64;101124.84;4348637;32;34533;-86
2022/11/27 02:48:12;;;;;;;3.20;2.17;;;;;;;8.57;64.96;101131.94;4356913;32;32471;-86
2022/11/27 02:50:43;;;;;;;1.12;1.12;;;;;;;8.55;65.11;101120.56;4355325;32;33805;-86
2022/11/27 02:53:18;;;;;;;7.15;2.80;;;;;;;8.65;64.84;101119.53;4367627;32;33760;-86
2022/11/27 02:55:48;;;;;;;3.50;2.87;;;;;;;8.73;64.04;101115.00;4345549;32;33961;-86
2022/11/27 02:58:20;;;;;;;2.00;1.87;;;;;;;8.39;65.07;101126.03;4367304;32;34335;-87
2022/11/27 03:00:50;;;;;;;1.05;1.02;;;;;;;8.52;65.15;101123.22;4350515;32;32890;-87
2022/11/27 03:03:21;;;;;;;1.75;1.65;;;;;;;8.54;64.99;101124.06;4364198;32;33583;-87
2022/11/27 03:05:54;;;;;;;2.47;2.28;;;;;;;8.49;64.97;101126.75;4366586;32;34094;-87
2022/11/27 03:08:32;;;;;;;4.78;2.80;;;;;;;8.51;64.85;101122.38;4355631;32;33018;-88
2022/11/27 03:11:06;;;;;;;10.07;3.78;;;;;;;8.50;64.77;101123.25;4355249;32;32757;-88
2022/11/27 03:13:37;;;;;;;1.48;1.37;;;;;;;8.46;64.84;101119.78;4354329;32;33994;-88
2022/11/27 03:16:38;;;;;;;4.35;2.67;;;;;;;8.50;64.72;101118.00;4366763;32;33246;-88
2022/11/27 03:19:36;;;;;;;3.58;2.30;;;;;;;8.48;64.65;101119.75;4356924;32;32722;-91
2022/11/27 03:22:35;;;;;;;3.12;2.87;;;;;;;8.45;64.66;101118.06;4376844;32;31776;-91
2022/11/27 03:25:17;;;;;;;1.25;1.23;;;;;;;8.38;64.71;101132.19;4402434;32;33057;-91
2022/11/27 03:28:05;;;;;;;2.72;2.53;;;;;;;8.43;64.57;101121.59;4343847;32;32752;-91
2022/11/27 03:30:47;;;;;;;3.15;2.95;;;;;;;8.35;64.71;101124.28;4380575;32;33776;-90
2022/11/27 03:33:39;;;;;;;3.37;3.10;;;;;;;8.27;64.64;101126.16;4380399;32;31755;-91
2022/11/27 03:36:20;;;;;;;3.87;2.47;;;;;;;8.09;65.29;101127.25;4364147;32;33720;-89
2022/11/27 03:38:50;;;;;;;2.30;2.12;;;;;;;8.20;64.95;101135.00;4353217;32;33308;-88
2022/11/27 03:41:50;;;;;;;4.10;1.85;;;;;;;8.18;64.99;101134.19;4344994;32;34363;-88
2022/11/27 03:44:27;;;;;;;1.60;1.50;;;;;;;8.20;64.83;101138.50;4336282;32;33758;-87
2022/11/27 03:47:10;;;;;;;1.42;1.35;;;;;;;8.18;64.88;101142.06;4368681;32;34192;-88
2022/11/27 03:49:50;;;;;;;;;;;;;;;8.25;64.72;101143.72;4366535;32;34205;-88
2022/11/27 03:52:43;;;;;;;2.75;2.53;;;;;;;8.31;64.37;101142.75;4355041;32;34417;-88
2022/11/27 03:55:16;;;;;;;9.20;3.22;;;;;;;8.10;64.80;101147.41;4342500;32;32493;-88
2022/11/27 03:57:48;;;;;;;2.20;2.00;;;;;;;8.03;64.85;101144.91;4353303;32;32671;-88
2022/11/27 04:00:16;;;;;;;3.47;3.17;;;;;;;8.26;64.10;101145.50;4356907;32;33146;-89
2022/11/27 04:02:49;;;;;;;6.72;3.60;;;;;;;8.01;64.62;101144.03;4356659;32;33921;-90
2022/11/27 04:05:18;;;;;;;1.05;1.02;;;;;;;7.99;64.78;101141.41;4357998;32;35164;-89
2022/11/27 04:07:46;;;;;;;1.58;0.95;;;;;;;8.05;64.55;101135.22;4354591;32;33505;-89
2022/11/27 04:10:14;;;;;;;4.70;3.50;;;;;;;8.14;64.27;101140.38;4355673;32;33215;-89
2022/11/27 04:12:43;;;;;;;9.13;3.40;;;;;;;8.00;64.55;101137.91;4357447;32;32780;-87
2022/11/27 04:15:10;;;;;;;4.75;1.55;;;;;;;7.99;64.57;101135.28;4343815;32;32879;-90
2022/11/27 04:17:38;;;;;;;3.62;2.90;;;;;;;7.90;64.23;101134.50;4358723;32;32875;-90
2022/11/27 04:20:07;;;;;;;4.22;2.85;;;;;;;7.91;64.52;101138.00;4357772;32;34368;-90
2022/11/27 04:22:36;;;;;;;5.75;4.55;;;;;;;7.74;65.00;101135.56;4355912;32;32606;-90
2022/11/27 04:25:04;;;;;;;2.67;2.50;;;;;;;7.75;64.78;101142.56;4356979;32;33447;-89
2022/11/27 04:27:32;;;;;;;1.58;1.48;;;;;;;7.83;64.71;101138.09;4343957;32;32863;-89
2022/11/27 04:30:00;;;;;;;12.55;4.35;;;;;;;7.91;64.40;101144.12;4355747;32;33347;-89
2022/11/27 04:32:28;;;;;;;2.03;1.48;;;;;;;7.87;64.34;101141.53;4355834;32;33734;-89
2022/11/27 04:34:55;;;;;;;2.47;2.33;;;;;;;7.85;64.35;101144.22;4346569;32;33400;-89
2022/11/27 04:37:23;;;;;;;3.28;2.97;;;;;;;7.87;64.44;101142.41;4355804;32;34577;-89
2022/11/27 04:39:53;;;;;;;3.65;3.17;;;;;;;7.83;64.34;101146.00;4358205;32;33605;-89
2022/11/27 04:42:21;;;;;;;3.97;3.53;;;;;;;7.77;64.67;101143.41;4355427;32;34088;-89
2022/11/27 04:44:49;;;;;;;4.43;3.47;;;;;;;7.85;64.61;101138.06;4341161;32;32627;-89
2022/11/27 04:47:17;;;;;;;8.82;4.22;;;;;;;7.67;64.85;101139.13;4356246;32;32932;-89
2022/11/27 04:49:45;;;;;;;3.37;2.85;;;;;;;7.74;64.79;101140.84;4356823;32;33664;-90
2022/11/27 04:52:14;;;;;;;2.70;2.22;;;;;;;7.70;64.89;101139.13;4343838;32;32785;-90
2022/11/27 04:54:42;;;;;;;6.85;4.72;;;;;;;7.53;65.65;101131.38;4346383;32;33444;-91
2022/11/27 04:57:15;;;;;;;1.10;1.10;;;;;;;7.76;65.01;101138.19;4349400;32;32708;-90
2022/11/27 04:59:45;;;;;;;3.20;2.97;;;;;;;7.67;65.30;101137.38;4358787;32;33458;-90
2022/11/27 05:02:14;;;;;;;5.18;4.72;;;;;;;7.63;65.64;101140.06;4343305;32;33163;-90
2022/11/27 05:04:44;;;;;;;5.50;3.60;;;;;;;7.77;65.32;101129.41;4358169;32;32706;-90
2022/11/27 05:07:11;;;;;;;7.03;3.97;;;;;;;7.60;65.83;101137.47;4358442;32;33671;-90
2022/11/27 05:09:40;;;;;;;13.82;3.95;;;;;;;7.50;66.28;101134.06;4357418;32;32775;-91
2022/11/27 05:12:12;;;;;;;2.97;2.15;;;;;;;7.47;66.34;101139.34;4359224;32;33219;-90
2022/11/27 05:14:40;;;;;;;5.55;4.95;;;;;;;7.57;66.31;101138.37;4357963;32;32636;-88
2022/11/27 05:17:10;;;;;;;4.37;4.05;;;;;;;7.55;66.60;101126.09;4345927;32;33707;-90
2022/11/27 05:19:38;;;;;;;4.05;3.17;;;;;;;7.57;66.69;101126.97;4354936;32;32549;-90
2022/11/27 05:22:06;;;;;;;11.68;5.97;;;;;;;7.67;66.42;101124.22;4357101;32;33809;-90
2022/11/27 05:24:35;;;;;;;4.50;4.15;;;;;;;7.73;66.32;101133.81;4354815;32;32596;-90
2022/11/27 05:27:03;;;;;;;4.40;4.05;;;;;;;7.79;66.23;101140.78;4354282;32;33277;-90
2022/11/27 05:29:31;;;;;;;3.05;2.90;;;;;;;7.83;66.14;101135.47;4356607;32;34515;-90
2022/11/27 05:31:59;;;;;;;6.05;3.37;;;;;;;7.95;65.77;101135.31;4355014;32;34458;-89
2022/11/27 05:34:33;;;;;;;5.12;3.75;;;;;;;7.64;66.97;101132.16;4352088;32;33334;-90
2022/11/27 05:37:03;;;;;;;2.22;2.12;;;;;;;7.84;66.68;101133.72;4340382;32;32885;-90
2022/11/27 05:39:31;;;;;;;1.73;1.62;;;;;;;7.94;66.33;101136.22;4350353;32;34014;-90
2022/11/27 05:42:00;;;;;;;4.35;3.22;;;;;;;7.81;66.80;101136.38;4353034;32;33147;-91
2022/11/27 05:44:31;;;;;;;1.40;1.30;;;;;;;7.75;67.19;101129.41;4353331;32;31861;-90
2022/11/27 05:46:58;;;;;;;0.82;0.82;;;;;;;7.83;67.12;101124.06;4350651;32;34226;-90
2022/11/27 05:49:28;;;;;;;2.85;2.65;;;;;;;8.18;65.78;101121.03;4354463;32;33328;-90
2022/11/27 05:51:57;;;;;;;1.25;1.23;;;;;;;8.03;66.05;101124.72;4354998;32;34276;-90
2022/11/27 05:54:25;;;;;;;1.42;1.35;;;;;;;7.86;67.24;101135.41;4350892;32;32381;-90
2022/11/27 05:56:53;;;;;;;1.33;1.27;;;;;;;7.95;66.81;101131.81;4353548;32;33779;-90
2022/11/27 05:59:23;;;;;;;0.22;0.22;;;;;;;7.94;67.21;101141.47;4353578;32;33390;-90
2022/11/27 06:01:51;;;;;;;2.70;2.50;;;;;;;8.02;66.77;101137.88;4340300;32;33668;-90
2022/11/27 06:04:20;;;;;;;2.75;2.08;;;;;;;8.07;66.29;101134.31;4353515;32;31255;-90
2022/11/27 06:06:48;;;;;;;1.75;1.62;;;;;;;7.92;67.09;101131.84;4339996;32;32464;-90
2022/11/27 06:09:16;;;;;;;3.45;2.97;;;;;;;7.86;67.15;101135.41;4351635;32;33911;-89
2022/11/27 06:11:47;;;;;;;1.67;1.58;;;;;;;7.98;67.17;101131.78;4337635;32;33398;-90
2022/11/27 06:14:16;;;;;;;0.82;0.82;;;;;;;7.92;67.30;101127.44;4353727;32;31275;-90
2022/11/27 06:16:44;;;;;;;0.28;0.28;;;;;;;8.00;67.20;101135.25;4353754;32;34789;-90
2022/11/27 06:19:13;;;;;;;2.72;2.37;;;;;;;7.81;67.56;101141.63;4353572;32;34518;-89
2022/11/27 06:21:40;;;;;;;2.00;1.60;;;;;;;7.97;67.53;101148.44;4356151;32;33029;-90
2022/11/27 06:24:13;;;;;;;3.00;0.85;;;;;;;8.06;67.23;101150.09;4352217;32;30899;-91
2022/11/27 06:26:42;;;;;;;0.80;0.80;;;;;;;7.98;67.67;101151.97;4349755;32;32547;-89
2022/11/27 06:29:09;;;;;;;2.00;1.17;;;;;;;8.04;67.32;101152.75;4338760;32;34979;-87
2022/11/27 06:31:39;;;;;;;2.78;2.10;;;;;;;8.02;67.40;101161.53;4351513;32;33133;-87
2022/11/27 06:34:11;;;;;;;3.42;3.20;;;;;;;8.12;67.37;101157.94;4352670;32;33889;-88
2022/11/27 06:36:41;;;;;;;6.15;3.33;;;;;;;8.09;67.55;101150.94;4353728;32;32904;-88
2022/11/27 06:39:10;;;;;;;1.55;1.50;;;;;;;7.87;67.90;101149.44;4354966;32;33755;-88
2022/11/27 06:41:40;;;;;;;1.52;1.40;;;;;;;8.11;67.51;101151.78;4337647;32;34995;-88
2022/11/27 06:44:10;;;;;;;3.20;2.97;;;;;;;8.10;67.41;101151.81;4357144;32;33841;-88
2022/11/27 06:46:47;;;;;;;1.52;1.42;;;;;;;8.16;67.39;101156.97;4351957;32;32690;-87
2022/11/27 06:49:19;;;;;;;0.47;0.47;;;;;;;8.11;67.58;101159.66;4352006;32;32885;-88
2022/11/27 06:51:49;;;;;;;;;;;;;;;8.12;67.63;101163.19;4351720;32;34596;-88
2022/11/27 06:54:18;;;;;;;0.52;0.52;;;;;;;8.22;67.63;101167.47;4365625;32;33098;-88
2022/11/27 06:56:48;;;;;;;1.05;1.05;;;;;;;8.29;67.45;101166.47;4339255;32;32302;-88
2022/11/27 06:59:25;;;;;;;0.68;0.68;;;;;;;8.51;66.42;101155.72;4349250;32;33347;-88
2022/11/27 07:01:55;;;;;;;1.45;1.35;;;;;;;8.41;66.15;101155.84;4360729;32;32510;-88
2022/11/27 07:04:25;;;;;;;0.93;0.93;;;;;;;8.33;67.02;101155.03;4349371;32;31787;-88
2022/11/27 07:06:59;;;;;;;0.93;0.93;;;;;;;8.32;67.21;101145.41;4361851;32;32695;-88
2022/11/27 07:09:28;;;;;;;1.37;1.27;;;;;;;8.34;67.20;101154.12;4349090;32;33272;-88
2022/11/27 07:11:58;;;;;;;1.30;1.30;;;;;;;8.47;66.85;101152.25;4350783;32;33182;-88
2022/11/27 07:14:26;;;;;;;2.65;2.50;;;;;;;8.51;66.56;101150.44;4347364;32;33275;-88
2022/11/27 07:17:02;;;;;;;2.15;2.05;;;;;;;8.44;66.97;101158.41;4353189;32;30869;-88
2022/11/27 07:19:31;;;;;;;3.25;3.00;;;;;;;8.45;66.94;101154.00;4348852;32;33666;-89
2022/11/27 07:22:00;;;;;;;2.15;2.05;;;;;;;8.49;67.00;101157.47;4353431;32;34456;-88
2022/11/27 07:24:41;;;;;;;4.22;3.65;;;;;;;8.64;66.63;101163.44;4355950;32;32711;-88
2022/11/27 07:27:13;;;;;;;5.62;2.25;;;;;;;8.68;66.33;101153.69;4364569;32;32794;-88
2022/11/27 07:29:41;;;;;;;1.10;1.10;;;;;;;8.58;66.75;101160.84;4350444;32;33489;-88
2022/11/27 07:32:10;;;;;;;2.33;2.12;;;;;;;8.51;67.10;101166.25;4365723;32;33487;-88
2022/11/27 07:34:40;;;;;;;3.70;3.40;;;;;;;8.46;67.43;101169.81;4336858;32;31999;-88
2022/11/27 07:37:16;;;;;;;5.10;3.40;;;;;;;8.62;67.18;101166.97;4346345;32;33406;-88
2022/11/27 07:39:48;;;;;;;1.85;1.75;;;;;;;8.69;67.06;101166.00;4329593;32;33239;-88
2022/11/27 07:42:31;;;;;;;3.33;3.08;;;;;;;8.63;67.37;101160.78;4338901;32;33837;-88
2022/11/27 07:45:09;;;;;;;0.73;0.73;;;;;;;8.64;67.42;101171.31;4339893;32;33637;-89
2022/11/27 07:47:42;;;;;;;1.90;1.77;;;;;;;8.66;67.40;101173.94;4325615;32;33446;-89
2022/11/27 07:50:11;;;;;;;2.03;0.88;;;;;;;8.98;66.34;101169.06;4336147;32;33289;-88
2022/11/27 07:52:40;;;;;;;3.45;2.78;;;;;;;8.78;66.81;101163.22;4336174;32;33807;-88
2022/11/27 07:55:16;;;;;;;2.25;1.98;;;;;;;9.17;65.73;101163.50;4330971;32;33027;-88
2022/11/27 07:57:48;;;;;;;3.33;1.65;;;;;;;9.31;64.78;101156.25;4336173;32;32700;-88
2022/11/27 08:00:18;;;;;;;1.52;1.52;;;;;;;9.26;64.98;101152.81;4341040;32;33834;-88
2022/11/27 08:02:48;;;;;;;1.62;1.52;;;;;;;9.08;65.93;101161.03;4326709;32;32943;-88
2022/11/27 08:05:18;;;;;;;2.22;2.12;;;;;;;9.19;65.78;101159.94;4351817;32;34150;-91
2022/11/27 08:08:25;;;;;;;0.68;0.68;;;;;;;9.04;66.39;101156.69;4326622;32;32867;-91
2022/11/27 08:10:55;;;;;;;3.60;3.12;;;;;;;8.89;67.09;101163.94;4336325;32;32630;-89
2022/11/27 08:13:30;;;;;;;1.62;1.58;;;;;;;9.17;66.24;101166.16;4321976;32;34137;-89
2022/11/27 08:16:05;;;;;;;2.97;2.75;;;;;;;9.03;66.54;101165.50;4333863;32;32491;-89
2022/11/27 08:18:36;;;;;;;3.40;3.17;;;;;;;9.02;67.02;101159.34;4332240;32;34315;-89
2022/11/27 08:21:05;;;;;;;2.12;2.00;;;;;;;8.75;67.76;101163.28;4346592;32;33063;-89
2022/11/27 08:23:33;;;;;;;3.22;2.95;;;;;;;8.81;67.82;101175.47;4328309;32;33788;-89
2022/11/27 08:26:09;;;;;;;2.97;2.85;;;;;;;9.18;66.98;101162.63;4331729;33;32712;-88
2022/11/27 08:28:39;;;;;;;2.87;2.67;;;;;;;8.99;67.48;101175.19;4334668;32;32508;-89
2022/11/27 08:31:12;;;;;;;3.60;2.50;;;;;;;9.06;67.80;101173.34;4336789;32;32732;-89
2022/11/27 08:36:25;;;;;;;6.87;5.97;;;;;;;9.12;67.63;101182.03;4350814;32;32531;-91
2022/11/27 08:38:55;;;;;;;5.25;4.90;;;;;;;9.34;67.11;101179.91;4353381;32;32464;-91
2022/11/27 08:41:26;;;;;;;5.68;5.15;;;;;;;9.17;67.39;101174.06;4338548;32;32604;-90
2022/11/27 08:43:59;;;;;;;5.28;3.58;;;;;;;9.24;67.28;101179.19;4351561;32;34448;-90
2022/11/27 08:46:27;;;;;;;3.53;2.80;;;;;;;9.59;66.25;101177.75;4347010;32;32217;-90
2022/11/27 08:49:03;;;;;;;3.58;2.30;;;;;;;9.62;65.93;101174.16;4337583;32;33438;-90
2022/11/27 08:51:46;;;;;;;3.97;1.90;;;;;;;9.33;66.69;101172.91;4352496;32;34086;-90
2022/11/27 08:54:27;;;;;;;4.12;3.72;;;;;;;9.28;66.48;101180.00;4350770;32;34280;-90
2022/11/27 08:57:01;;;;;;;3.62;2.50;;;;;;;9.45;66.20;101180.59;4365022;32;33416;-90
2022/11/27 08:59:31;;;;;;;4.32;2.45;;;;;;;9.31;65.36;101179.97;4353275;32;34473;-90
2022/11/27 09:04:49;;;;;;;5.18;3.17;;;;;;;9.29;65.86;101200.19;4350182;32;33988;-90
2022/11/27 09:07:22;;;;;;;0.47;0.47;;;;;;;9.17;66.07;101200.41;4348131;32;32123;-90
2022/11/27 09:09:55;;;;;;;4.65;2.08;;;;;;;9.31;64.91;101197.56;4347037;32;33953;-89
2022/11/27 09:12:26;;;;;;;1.75;1.65;;;;;;;9.23;65.22;101205.56;4349697;32;33502;-90
2022/11/27 09:14:57;;;;;;;7.62;3.75;;;;;;;9.07;65.39;101204.94;4336948;32;34444;-89
2022/11/27 09:17:25;;;;;;;4.07;3.62;;;;;;;9.08;66.17;101206.69;4345013;32;33382;-89
2022/11/27 09:19:56;;;;;;;6.85;3.17;;;;;;;9.29;65.38;101204.59;4322603;32;32010;-90
2022/11/27 09:22:29;;;;;;;2.67;2.17;;;;;;;8.83;66.61;101206.19;4348170;32;33491;-90
2022/11/27 09:25:08;;;;;;;1.85;1.62;;;;;;;9.30;65.36;101203.69;4345445;32;32171;-90
2022/11/27 09:27:37;;;;;;;2.42;2.20;;;;;;;9.40;64.76;101198.28;4348786;32;31774;-90
2022/11/27 09:30:09;;;;;;;6.62;2.80;;;;;;;9.38;64.55;101197.41;4350304;32;34590;-90
2022/11/27 09:32:45;;;;;;;3.37;2.62;;;;;;;9.63;64.01;101204.91;4348596;32;33062;-90
2022/11/27 09:35:16;;;;;;;4.45;2.65;;;;;;;9.72;62.96;101195.06;4334365;32;32524;-90
2022/11/27 09:37:45;;;;;;;1.60;1.50;;;;;;;9.47;63.85;101183.22;4350724;32;33557;-89
2022/11/27 09:40:23;;;;;;;5.25;2.75;;;;;;;9.47;63.95;101183.22;4338398;32;34646;-89
2022/11/27 09:43:01;;;;;;;1.87;1.77;;;;;;;9.66;63.66;101184.62;4349773;32;32681;-90
2022/11/27 09:45:32;;;;;;;0.77;0.77;;;;;;;9.76;63.08;101185.34;4352298;32;33638;-90
2022/11/27 09:48:11;;;;;;;2.45;2.25;;;;;;;9.70;63.12;101185.44;4352487;32;32065;-90
2022/11/27 09:50:50;;;;;;;;;;;;;;;9.66;63.68;101191.66;4353962;32;32602;-90
2022/11/27 09:53:38;;;;;;;4.43;4.03;;;;;;;9.66;63.33;101195.19;4352639;32;33862;-90
2022/11/27 09:56:14;;;;;;;2.62;1.65;;;;;;;9.71;62.77;101192.47;4352331;32;34688;-90
2022/11/27 09:58:55;;;;;;;1.10;1.10;;;;;;;9.32;64.11;101179.06;4352629;32;32855;-91
2022/11/27 10:01:28;;;;;;;6.60;2.90;;;;;;;9.32;65.11;101184.34;4340412;32;33119;-90
2022/11/27 10:04:17;;;;;;;0.98;0.98;;;;;;;9.65;64.14;101176.75;4364421;32;34088;-90
2022/11/27 10:07:05;;;;;;;5.35;3.22;;;;;;;9.79;63.76;101172.09;4368136;32;34435;-92
2022/11/27 10:10:00;;;;;;;4.25;3.53;;;;;;;9.64;64.04;101161.84;4362191;32;33123;-91
2022/11/27 10:12:59;;;;;;;1.83;1.75;;;;;;;9.79;63.90;101164.19;4380108;32;32699;-92
2022/11/27 10:16:37;;;;;;;3.15;2.97;;;;;;;9.74;64.23;101171.31;4366026;32;33180;-92
2022/11/27 10:22:50;;;;;;;5.03;4.55;;;;;;;10.07;62.48;101163.66;4421092;32;32861;-91
2022/11/27 10:26:02;;;;;;;0.50;0.50;;;;;;;10.02;62.67;101155.84;4398613;32;34463;-91
2022/11/27 10:29:01;;;;;;;2.22;1.77;;;;;;;10.12;61.78;101151.25;4402665;32;32379;-91
2022/11/27 10:31:56;;;;;;;1.10;1.10;;;;;;;9.69;63.67;101147.66;4433442;32;34492;-90
2022/11/27 10:35:00;;;;;;;1.10;1.05;;;;;;;9.82;63.53;101147.41;4367754;32;33868;-92
2022/11/27 10:37:53;;;;;;;2.55;2.35;;;;;;;9.71;63.66;101144.97;4378588;32;32419;-90
2022/11/27 10:41:09;;;;;;;3.55;3.33;;;;;;;9.82;63.38;101145.63;4391636;32;35263;-92
2022/11/27 10:43:57;;;;;;;2.10;2.00;;;;;;;9.96;62.88;101145.37;4378898;32;33093;-92
2022/11/27 10:46:44;;;;;;;2.78;1.55;;;;;;;9.40;65.11;101145.56;4403291;32;32807;-91
2022/11/27 10:49:29;;;;;;;0.47;0.47;;;;;;;9.69;64.40;101142.37;4357073;32;32728;-93
2022/11/27 10:52:15;;;;;;;1.60;1.48;;;;;;;9.77;63.90;101142.22;4357774;32;33878;-92
2022/11/27 10:55:42;;;;;;;4.05;3.53;;;;;;;9.56;64.37;101140.00;4344188;32;33032;-93
2022/11/27 10:58:39;;;;;;;3.83;3.35;;;;;;;9.91;63.06;101131.41;4354905;32;33910;-93
2022/11/27 11:01:24;;;;;;;1.98;1.85;;;;;;;9.43;64.77;101137.56;4382872;32;33473;-91
2022/11/27 11:04:10;;;;;;;0.98;0.98;;;;;;;9.64;64.19;101122.28;4368991;32;33768;-91
2022/11/27 11:07:23;;;;;;;0.95;0.95;;;;;;;9.86;63.91;101117.44;4365382;32;32622;-93
2022/11/27 11:10:23;;;;;;;2.27;2.17;;;;;;;9.40;64.66;101119.19;4378637;32;33013;-93
2022/11/27 11:13:15;;;;;;;3.83;3.37;;;;;;;9.16;65.96;101111.69;4401782;32;33204;-92
2022/11/27 11:16:12;;;;;;;8.80;4.40;;;;;;;9.20;65.61;101121.28;4375430;32;32728;-92
2022/11/27 11:18:59;;;;;;;2.55;2.45;;;;;;;9.43;65.39;101108.56;4342835;32;33689;-93
2022/11/27 11:21:44;;;;;;;1.70;1.52;;;;;;;9.46;65.18;101112.94;4364945;32;32513;-92
2022/11/27 11:24:32;;;;;;;3.42;2.67;;;;;;;9.44;65.29;101109.44;4382253;32;32845;-93
2022/11/27 11:30:29;;;;;;;1.42;1.42;;;;;;;9.40;65.07;101103.38;4361063;32;35122;-94
2022/11/27 11:33:12;;;;;;;1.92;1.65;;;;;;;9.37;65.45;101100.78;4411648;32;32678;-93
2022/11/27 11:36:06;;;;;;;2.00;1.90;;;;;;;9.01;66.73;101098.78;4378618;32;33789;-92
2022/11/27 11:38:53;;;;;;;16.35;5.87;;;;;;;8.91;66.68;101093.66;4419163;32;33295;-92
2022/11/27 11:41:37;;;;;;;2.37;2.25;;;;;;;9.36;65.68;101085.88;4371658;32;32488;-94
2022/11/27 11:44:49;;;;;;;4.93;2.15;;;;;;;9.53;65.63;101079.41;4362258;32;34246;-93
2022/11/27 11:47:35;;;;;;;4.68;4.37;;;;;;;9.72;64.47;101080.78;4396750;32;32253;-92
2022/11/27 11:50:30;;;;;;;2.08;1.90;;;;;;;9.83;63.83;101070.91;4393632;32;32520;-93
2022/11/27 11:53:32;;;;;;;4.32;4.03;;;;;;;9.49;65.65;101074.19;4359723;32;32922;-92
2022/11/27 11:56:40;;;;;;;8.15;4.80;;;;;;;9.57;64.74;101073.16;4352069;32;34891;-93
2022/11/27 11:59:41;;;;;;;3.97;3.50;;;;;;;9.11;66.22;101074.00;4381409;32;33831;-93
2022/11/27 12:02:47;;;;;;;4.97;4.57;;;;;;;8.92;67.74;101069.03;4377721;32;20138;-92
2022/11/27 12:05:59;;;;;;;4.70;4.28;;;;;;;9.26;66.23;101067.59;4387911;32;32842;-92
2022/11/27 12:12:36;;;;;;;4.43;2.83;;;;;;;9.03;67.04;101062.75;4345531;32;32720;-92
2022/11/27 12:15:32;;;;;;;4.35;2.83;;;;;;;9.18;66.53;101063.34;4384224;32;32716;-93
2022/11/27 12:18:37;;;;;;;3.97;3.58;;;;;;;8.89;67.62;101069.09;4388613;32;32954;-93
2022/11/27 12:21:48;;;;;;;4.97;4.53;;;;;;;8.95;67.17;101061.09;4376816;32;33906;-92
2022/11/27 12:24:40;;;;;;;5.10;4.68;;;;;;;8.94;67.36;101059.38;4414483;32;33010;-93
2022/11/27 12:27:49;;;;;;;5.07;2.58;;;;;;;9.17;66.82;101055.47;4393162;32;33048;-93
2022/11/27 12:31:14;;;;;;;3.80;3.10;;;;;;;9.50;65.35;101051.34;4412462;32;35401;-93
2022/11/27 12:34:25;;;;;;;4.80;1.33;;;;;;;9.01;67.04;101056.63;4378324;32;32212;-93
2022/11/27 12:37:27;;;;;;;2.20;1.98;;;;;;;9.12;66.47;101054.69;4357076;32;34464;-93
2022/11/27 12:40:27;;;;;;;3.35;2.87;;;;;;;9.36;65.48;101051.59;4378454;32;32715;-93
2022/11/27 12:46:18;;;;;;;5.25;3.70;;;;;;;9.78;64.30;101045.50;4376570;32;34159;-93